Time;durP1;ratioP1;P1;durP2;ratioP2;P2;SDS_P1;SDS_P2;PMS_P1;PMS_P2;Temp;Humidity;BMP_temperature;BMP_pressure;BME280_temperature;BME280_humidity;BME280_pressure;Samples;Min_cycle;Max_cycle;Signal;HPM_P1;HPM_P2
2023/01/07 00:01:02;;;;;;;0.00;0.00;;;;;;;12.10;78.24;98759.97;7358018;19;20056;-58
2023/01/07 00:03:28;;;;;;;;;;;;;;;12.13;77.47;98776.31;7358585;19;20011;-57
2023/01/07 00:05:58;;;;;;;0.10;0.10;;;;;;;12.11;77.90;98772.09;7356243;19;19931;-57
2023/01/07 00:08:31;;;;;;;0.08;0.08;;;;;;;12.12;77.93;98776.44;7356634;19;20018;-57
2023/01/07 00:11:01;;;;;;;0.10;0.10;;;;;;;12.10;77.76;98784.34;7358652;19;20589;-58
2023/01/07 00:13:26;;;;;;;0.10;0.10;;;;;;;12.09;78.10;98808.00;7355905;19;20021;-58
2023/01/07 00:15:57;;;;;;;0.10;0.10;;;;;;;12.10;77.87;98814.91;7357307;19;20018;-57
2023/01/07 00:18:23;;;;;;;0.10;0.10;;;;;;;12.04;76.85;98804.81;7358320;19;20025;-59
2023/01/07 00:20:48;;;;;;;0.10;0.10;;;;;;;11.98;76.74;98811.25;7347693;19;20677;-58
2023/01/07 00:23:14;;;;;;;0.03;0.03;;;;;;;11.89;76.38;98806.53;7358763;19;20015;-58
2023/01/07 00:25:40;;;;;;;0.00;0.00;;;;;;;11.77;76.37;98807.25;7349538;19;20023;-58
2023/01/07 00:28:05;;;;;;;0.10;0.10;;;;;;;11.58;76.47;98787.38;7356261;19;20518;-58
2023/01/07 00:30:31;;;;;;;0.10;0.10;;;;;;;11.52;76.95;98806.03;7354221;19;20019;-58
2023/01/07 00:33:04;;;;;;;0.10;0.10;;;;;;;11.43;76.77;98809.16;7356770;19;20006;-55
2023/01/07 00:35:35;;;;;;;0.10;0.10;;;;;;;11.35;77.21;98809.59;7355428;19;20022;-57
2023/01/07 00:38:04;;;;;;;0.10;0.10;;;;;;;11.24;77.88;98801.50;7355815;19;20014;-56
2023/01/07 00:40:31;;;;;;;0.10;0.10;;;;;;;11.19;78.08;98800.91;7354018;19;20021;-57
2023/01/07 00:43:01;;;;;;;0.00;0.00;;;;;;;11.13;78.10;98798.63;7354947;19;20093;-57
2023/01/07 00:45:36;;;;;;;0.00;0.00;;;;;;;11.07;77.32;98802.44;7355876;19;20017;-55
2023/01/07 00:48:03;;;;;;;0.10;0.10;;;;;;;11.02;77.80;98808.84;7353586;19;20007;-55
2023/01/07 00:50:34;;;;;;;0.10;0.10;;;;;;;10.97;78.10;98796.03;7354197;19;20030;-57
2023/01/07 00:52:59;;;;;;;0.10;0.10;;;;;;;10.85;78.84;98794.09;7360976;19;20033;-57
2023/01/07 00:55:26;;;;;;;0.00;0.00;;;;;;;10.89;78.18;98790.38;7360318;19;20110;-57
2023/01/07 00:57:52;;;;;;;0.10;0.10;;;;;;;10.79;79.12;98776.13;7360445;19;20599;-54
2023/01/07 01:00:19;;;;;;;0.10;0.10;;;;;;;10.69;79.42;98761.88;7364233;19;20014;-57
2023/01/07 01:02:45;;;;;;;0.10;0.10;;;;;;;10.69;79.63;98762.72;7362906;19;20014;-58
2023/01/07 01:05:11;;;;;;;0.05;0.05;;;;;;;10.71;80.11;98762.66;7358699;19;20022;-58
2023/01/07 01:07:37;;;;;;;0.10;0.10;;;;;;;10.74;80.12;98767.69;7359018;19;20030;-57
2023/01/07 01:10:05;;;;;;;0.10;0.10;;;;;;;10.78;80.04;98764.00;7361823;19;20018;-56
2023/01/07 01:12:31;;;;;;;0.00;0.00;;;;;;;10.79;80.22;98766.53;7361996;19;20046;-58
2023/01/07 01:14:56;;;;;;;0.10;0.10;;;;;;;10.75;80.52;98754.59;7361008;19;20010;-57
2023/01/07 01:17:21;;;;;;;0.08;0.08;;;;;;;10.81;80.62;98748.19;7360891;19;20014;-56
2023/01/07 01:19:47;;;;;;;0.00;0.00;;;;;;;10.81;80.25;98754.25;7362942;19;20014;-58
2023/01/07 01:22:13;;;;;;;0.00;0.00;;;;;;;10.83;80.67;98748.94;7355988;19;20006;-58
2023/01/07 01:24:38;;;;;;;0.10;0.10;;;;;;;10.78;80.57;98750.97;7362406;19;20019;-57
2023/01/07 01:27:03;;;;;;;0.10;0.10;;;;;;;10.82;80.58;98749.88;7358886;19;20015;-57
2023/01/07 01:29:29;;;;;;;0.10;0.10;;;;;;;10.79;80.48;98756.09;7363697;19;20491;-58
2023/01/07 01:31:54;;;;;;;0.10;0.10;;;;;;;10.72;80.50;98733.03;7359921;19;20052;-58
2023/01/07 01:34:20;;;;;;;0.00;0.00;;;;;;;10.78;80.48;98743.97;7361488;19;20078;-56
2023/01/07 01:36:45;;;;;;;0.10;0.10;;;;;;;10.77;80.39;98762.34;7356774;19;20718;-56
2023/01/07 01:39:11;;;;;;;0.03;0.03;;;;;;;10.78;80.08;98761.41;7361952;19;20674;-57
2023/01/07 01:41:36;;;;;;;0.10;0.10;;;;;;;10.76;79.83;98753.66;7354882;19;20010;-58
2023/01/07 01:44:33;;;;;;;0.10;0.10;;;;;;;10.79;79.76;98755.25;7358718;19;20573;-57
2023/01/07 01:47:00;;;;;;;0.10;0.10;;;;;;;10.74;80.02;98758.09;7254535;19;2004174;-57
2023/01/07 01:49:35;;;;;;;0.10;0.10;;;;;;;10.75;79.78;98764.19;7359433;19;21261;-57
2023/01/07 01:52:07;;;;;;;0.10;0.10;;;;;;;10.73;79.91;98750.38;7360459;19;20741;-57
2023/01/07 01:54:33;;;;;;;0.05;0.05;;;;;;;10.69;79.73;98748.84;7357725;19;20533;-58
2023/01/07 01:57:01;;;;;;;0.10;0.10;;;;;;;10.68;79.68;98742.78;7360440;19;20006;-56
2023/01/07 01:59:31;;;;;;;0.00;0.00;;;;;;;10.65;79.82;98754.25;7361714;19;20052;-57
2023/01/07 02:01:57;;;;;;;0.10;0.10;;;;;;;10.59;79.40;98748.50;7358801;19;21053;-57
2023/01/07 02:04:25;;;;;;;0.10;0.10;;;;;;;10.61;79.81;98744.06;7356330;19;20013;-56
2023/01/07 02:07:01;;;;;;;0.00;0.00;;;;;;;10.54;79.69;98727.03;7353782;19;20549;-57
2023/01/07 02:09:26;;;;;;;0.00;0.00;;;;;;;10.45;80.20;98702.28;7359573;19;20010;-58
2023/01/07 02:12:07;;;;;;;0.10;0.10;;;;;;;10.59;80.11;98723.25;7358280;19;20015;-56
2023/01/07 02:15:06;;;;;;;0.10;0.10;;;;;;;10.59;80.20;98731.09;7358921;19;20022;-57
2023/01/07 02:17:50;;;;;;;0.10;0.10;;;;;;;10.56;80.31;98733.00;7258747;19;2004254;-58
2023/01/07 02:20:33;;;;;;;0.08;0.08;;;;;;;10.58;80.14;98737.22;7357631;19;20002;-57
2023/01/07 02:23:04;;;;;;;0.00;0.00;;;;;;;10.57;80.58;98735.53;7358439;19;20135;-58
2023/01/07 02:25:55;;;;;;;0.10;0.10;;;;;;;10.58;80.10;98731.16;7357921;19;20034;-56
2023/01/07 02:28:47;;;;;;;0.10;0.10;;;;;;;10.59;79.88;98733.69;7257148;19;2004456;-55
2023/01/07 02:31:30;;;;;;;0.10;0.10;;;;;;;10.56;80.45;98723.41;7256820;19;2004303;-56
2023/01/07 02:34:00;;;;;;;0.08;0.08;;;;;;;10.55;80.44;98721.75;7360715;19;20176;-57
2023/01/07 02:37:00;;;;;;;0.10;0.10;;;;;;;10.58;80.24;98718.94;7356882;19;20010;-58
2023/01/07 02:40:03;;;;;;;0.00;0.00;;;;;;;10.58;80.36;98700.69;7253469;19;2004197;-58
2023/01/07 02:42:46;;;;;;;0.00;0.00;;;;;;;10.60;80.05;98698.84;7257451;19;2004023;-57
2023/01/07 02:45:26;;;;;;;0.00;0.00;;;;;;;10.57;80.70;98699.00;7359104;19;20029;-57
2023/01/07 02:47:56;;;;;;;0.00;0.00;;;;;;;10.58;80.60;98694.63;7352775;19;20007;-58
2023/01/07 02:50:22;;;;;;;0.00;0.00;;;;;;;10.56;80.91;98684.28;7355782;19;20109;-57
2023/01/07 02:52:47;;;;;;;0.10;0.10;;;;;;;10.56;80.62;98681.66;7354770;19;20017;-57
2023/01/07 02:55:17;;;;;;;0.10;0.10;;;;;;;10.57;80.81;98683.34;7357636;19;20025;-54
2023/01/07 02:58:13;;;;;;;0.00;0.00;;;;;;;10.55;80.64;98679.97;7351898;19;20343;-57
2023/01/07 03:00:55;;;;;;;0.00;0.00;;;;;;;10.59;80.57;98684.13;7259124;19;2004580;-58
2023/01/07 03:03:41;;;;;;;0.08;0.08;;;;;;;10.58;80.46;98682.41;7359938;19;20017;-57
2023/01/07 03:06:28;;;;;;;0.10;0.10;;;;;;;10.59;80.13;98689.34;7359375;19;20022;-57
2023/01/07 03:09:21;;;;;;;0.00;0.00;;;;;;;10.60;80.53;98687.56;7362672;19;20542;-57
2023/01/07 03:12:08;;;;;;;0.10;0.10;;;;;;;10.59;80.55;98673.69;7257577;19;2005134;-58
2023/01/07 03:14:45;;;;;;;;;;;;;;;10.61;79.76;98660.53;7358762;19;20014;-58
2023/01/07 03:17:17;;;;;;;0.10;0.10;;;;;;;10.59;80.61;98649.31;7363249;19;20718;-56
2023/01/07 03:19:47;;;;;;;0.00;0.00;;;;;;;10.56;80.30;98645.13;7357544;19;20006;-58
2023/01/07 03:22:15;;;;;;;0.00;0.00;;;;;;;10.55;80.76;98646.06;7360337;19;20006;-58
2023/01/07 03:24:43;;;;;;;0.10;0.10;;;;;;;10.55;80.68;98640.84;7360650;19;20011;-58
2023/01/07 03:27:08;;;;;;;0.00;0.00;;;;;;;10.53;80.55;98634.84;7361840;19;20007;-58
2023/01/07 03:29:37;;;;;;;0.00;0.00;;;;;;;10.50;80.72;98624.59;7361356;19;20010;-58
2023/01/07 03:32:24;;;;;;;0.03;0.03;;;;;;;10.56;80.22;98624.25;7358864;19;20495;-58
2023/01/07 03:34:50;;;;;;;;;;;;;;;10.57;80.22;98630.31;7361401;19;20552;-57
2023/01/07 03:37:18;;;;;;;0.10;0.10;;;;;;;10.53;80.71;98619.19;7360129;19;19940;-57
2023/01/07 03:39:46;;;;;;;0.08;0.08;;;;;;;10.53;80.37;98618.34;7360530;19;20014;-57
2023/01/07 03:44:57;;;;;;;0.00;0.00;;;;;;;10.50;80.77;98610.72;7352042;19;20014;-57
2023/01/07 03:47:25;;;;;;;0.10;0.10;;;;;;;10.37;80.22;98594.88;7361041;19;20025;-56
2023/01/07 03:49:51;;;;;;;0.10;0.10;;;;;;;10.44;80.42;98606.69;7346447;19;20018;-58
2023/01/07 03:52:16;;;;;;;0.10;0.10;;;;;;;10.44;80.39;98600.59;7356593;19;20015;-58
2023/01/07 03:54:42;;;;;;;0.00;0.00;;;;;;;10.42;80.27;98600.69;7360796;19;20003;-58
2023/01/07 03:57:07;;;;;;;0.08;0.08;;;;;;;10.42;80.79;98599.84;7358176;19;20761;-58
2023/01/07 03:59:33;;;;;;;0.10;0.10;;;;;;;10.40;80.44;98581.66;7360296;19;20014;-58
2023/01/07 04:01:58;;;;;;;0.00;0.00;;;;;;;10.39;80.46;98561.69;7360688;19;20025;-57
2023/01/07 04:04:23;;;;;;;0.00;0.00;;;;;;;10.38;80.82;98552.19;7341447;19;20111;-58
2023/01/07 04:06:49;;;;;;;0.10;0.10;;;;;;;10.36;80.92;98548.84;7355198;19;20418;-57
2023/01/07 04:09:17;;;;;;;0.05;0.05;;;;;;;10.29;80.75;98532.72;7354439;19;20046;-58
2023/01/07 04:11:43;;;;;;;0.10;0.10;;;;;;;10.36;80.85;98543.63;7355243;19;20010;-57
2023/01/07 04:14:08;;;;;;;0.10;0.10;;;;;;;10.35;80.40;98536.75;7350503;19;20010;-57
2023/01/07 04:16:34;;;;;;;0.00;0.00;;;;;;;10.35;80.54;98544.56;7356156;19;20042;-57
2023/01/07 04:18:59;;;;;;;0.00;0.00;;;;;;;10.33;80.44;98534.19;7353538;19;20435;-58
2023/01/07 04:21:25;;;;;;;0.00;0.00;;;;;;;10.32;80.84;98532.53;7341342;19;20007;-58
2023/01/07 04:23:50;;;;;;;0.00;0.00;;;;;;;10.31;80.81;98519.56;7354385;19;20035;-58
2023/01/07 04:26:15;;;;;;;0.10;0.10;;;;;;;10.30;80.52;98517.91;7350770;19;20109;-58
2023/01/07 04:28:41;;;;;;;0.00;0.00;;;;;;;10.29;80.83;98522.28;7354223;19;20025;-58
2023/01/07 04:31:06;;;;;;;0.10;0.10;;;;;;;10.17;80.70;98496.00;7353470;19;20014;-55
2023/01/07 04:33:32;;;;;;;0.00;0.00;;;;;;;10.28;80.38;98504.06;7353957;19;20532;-57
2023/01/07 04:35:57;;;;;;;0.10;0.10;;;;;;;10.26;80.40;98500.72;7351825;19;20010;-57
2023/01/07 04:38:23;;;;;;;0.00;0.00;;;;;;;10.24;80.24;98502.56;7355155;19;20010;-57
2023/01/07 04:40:48;;;;;;;0.03;0.03;;;;;;;10.10;80.50;98474.66;7350709;19;20015;-57
2023/01/07 04:43:14;;;;;;;0.05;0.05;;;;;;;10.21;80.49;98492.28;7356428;19;20043;-57
2023/01/07 04:45:39;;;;;;;0.10;0.10;;;;;;;10.20;80.24;98495.84;7354437;19;20021;-58
2023/01/07 04:48:05;;;;;;;0.10;0.10;;;;;;;10.18;80.50;98489.84;7356399;19;20359;-57
2023/01/07 04:50:31;;;;;;;0.10;0.10;;;;;;;10.18;80.38;98487.22;7353993;19;20010;-58
2023/01/07 04:52:56;;;;;;;0.10;0.10;;;;;;;10.16;80.39;98474.28;7358965;19;20007;-56
2023/01/07 04:55:22;;;;;;;0.00;0.00;;;;;;;10.10;80.54;98470.25;7357052;19;20111;-57
2023/01/07 04:57:47;;;;;;;0.00;0.00;;;;;;;10.14;80.72;98474.38;7358628;19;20014;-56
2023/01/07 05:00:13;;;;;;;0.00;0.00;;;;;;;10.16;80.81;98470.84;7354256;19;20027;-57
2023/01/07 05:02:39;;;;;;;0.10;0.10;;;;;;;10.07;80.70;98454.78;7355598;19;20010;-57
2023/01/07 05:05:05;;;;;;;0.10;0.10;;;;;;;10.13;80.89;98470.06;7349990;19;20037;-58
2023/01/07 05:07:30;;;;;;;0.03;0.03;;;;;;;10.13;80.48;98459.63;7356628;19;20808;-55
2023/01/07 05:09:55;;;;;;;0.10;0.10;;;;;;;10.13;80.80;98454.44;7357268;19;20056;-56
2023/01/07 05:12:21;;;;;;;0.00;0.00;;;;;;;10.12;80.48;98455.34;7356862;19;20015;-57
2023/01/07 05:14:46;;;;;;;0.05;0.05;;;;;;;10.14;80.87;98469.16;7356586;19;20011;-56
2023/01/07 05:17:12;;;;;;;0.10;0.10;;;;;;;10.14;80.44;98460.50;7356870;19;20022;-56
2023/01/07 05:19:37;;;;;;;0.10;0.10;;;;;;;10.12;80.66;98447.53;7355491;19;20052;-57
2023/01/07 05:22:03;;;;;;;0.00;0.00;;;;;;;10.09;80.71;98426.03;7356989;19;20958;-56
2023/01/07 05:24:29;;;;;;;0.10;0.10;;;;;;;10.04;80.88;98407.19;7356076;19;20014;-57
2023/01/07 05:26:54;;;;;;;0.00;0.00;;;;;;;10.12;80.99;98428.44;7354603;19;20025;-57
2023/01/07 05:29:20;;;;;;;0.10;0.10;;;;;;;10.12;80.81;98426.66;7355635;19;20044;-56
2023/01/07 05:31:45;;;;;;;0.00;0.00;;;;;;;10.12;80.49;98420.63;7355958;19;20745;-57
2023/01/07 05:34:10;;;;;;;0.08;0.08;;;;;;;10.11;80.59;98429.38;7355770;19;20011;-56
2023/01/07 05:36:36;;;;;;;0.00;0.00;;;;;;;10.11;80.81;98424.16;7352117;19;20003;-57
2023/01/07 05:39:01;;;;;;;0.00;0.00;;;;;;;10.11;80.44;98425.00;7362239;19;20010;-57
2023/01/07 05:41:27;;;;;;;0.03;0.03;;;;;;;10.11;80.81;98416.34;7360097;19;20010;-56
2023/01/07 05:43:52;;;;;;;0.00;0.00;;;;;;;10.11;80.78;98417.19;7362287;19;20033;-55
2023/01/07 05:46:17;;;;;;;0.00;0.00;;;;;;;10.09;80.48;98402.56;7360792;19;20025;-57
2023/01/07 05:48:43;;;;;;;0.00;0.00;;;;;;;10.10;80.70;98402.47;7364343;19;20015;-57
2023/01/07 05:51:08;;;;;;;0.00;0.00;;;;;;;10.10;80.56;98404.22;7357419;19;20045;-56
2023/01/07 05:53:34;;;;;;;0.00;0.00;;;;;;;10.08;80.76;98404.31;7361096;19;20022;-56
2023/01/07 05:56:00;;;;;;;0.00;0.00;;;;;;;10.09;80.48;98402.56;7362518;19;20041;-57
2023/01/07 05:58:26;;;;;;;0.10;0.10;;;;;;;10.08;80.64;98393.88;7362562;19;20007;-57
2023/01/07 06:00:52;;;;;;;0.00;0.00;;;;;;;10.07;80.05;98386.16;7361247;19;20006;-57
2023/01/07 06:03:18;;;;;;;0.08;0.08;;;;;;;9.99;80.26;98370.13;7360783;19;20013;-56
2023/01/07 06:05:44;;;;;;;0.10;0.10;;;;;;;10.02;79.99;98383.81;7358953;19;20017;-57
2023/01/07 06:08:09;;;;;;;0.10;0.10;;;;;;;9.99;80.29;98384.00;7359895;19;20848;-57
2023/01/07 06:10:35;;;;;;;0.00;0.00;;;;;;;9.97;80.45;98377.16;7360745;19;20014;-57
2023/01/07 06:13:01;;;;;;;0.10;0.10;;;;;;;9.96;80.25;98386.75;7359360;19;20010;-57
2023/01/07 06:15:27;;;;;;;0.10;0.10;;;;;;;9.93;79.84;98373.88;7362126;19;20010;-57
2023/01/07 06:17:52;;;;;;;0.00;0.00;;;;;;;9.92;79.85;98377.44;7360617;19;20009;-57
2023/01/07 06:20:18;;;;;;;0.10;0.10;;;;;;;9.90;80.27;98368.88;7361691;19;20013;-58
2023/01/07 06:22:43;;;;;;;0.00;0.00;;;;;;;9.79;80.02;98350.41;7358826;19;20022;-57
2023/01/07 06:25:10;;;;;;;0.05;0.05;;;;;;;9.86;80.23;98349.94;7360739;19;20003;-58
2023/01/07 06:27:36;;;;;;;0.00;0.00;;;;;;;9.86;80.15;98351.72;7359758;19;20530;-58
2023/01/07 06:30:04;;;;;;;0.10;0.10;;;;;;;9.86;79.77;98343.91;7362093;19;20078;-57
2023/01/07 06:32:30;;;;;;;0.10;0.10;;;;;;;9.78;80.12;98318.28;7359703;19;20006;-58
2023/01/07 06:34:55;;;;;;;0.10;0.10;;;;;;;9.80;80.08;98320.81;7362014;19;20003;-57
2023/01/07 06:37:21;;;;;;;0.08;0.08;;;;;;;9.85;80.50;98334.41;7358625;19;20014;-58
2023/01/07 06:39:46;;;;;;;0.00;0.00;;;;;;;9.84;80.08;98317.09;7360062;19;20014;-56
2023/01/07 06:42:12;;;;;;;0.03;0.03;;;;;;;9.83;80.24;98315.38;7359374;19;20411;-57
2023/01/07 06:44:37;;;;;;;0.00;0.00;;;;;;;9.73;80.09;98296.88;7359799;19;20036;-56
2023/01/07 06:47:02;;;;;;;0.10;0.10;;;;;;;9.83;80.27;98321.47;7359733;19;20002;-55
2023/01/07 06:49:28;;;;;;;0.00;0.00;;;;;;;9.83;80.37;98323.22;7353174;19;20063;-57
2023/01/07 06:51:53;;;;;;;0.10;0.10;;;;;;;9.83;79.84;98325.81;7360177;19;20611;-56
2023/01/07 06:54:18;;;;;;;0.00;0.00;;;;;;;9.82;80.05;98334.56;7360365;19;20010;-58
2023/01/07 06:56:44;;;;;;;0.00;0.00;;;;;;;9.80;79.94;98320.81;7361718;19;20019;-56
2023/01/07 06:59:10;;;;;;;0.10;0.10;;;;;;;9.80;80.10;98313.81;7352401;19;20691;-55
2023/01/07 07:01:35;;;;;;;0.00;0.00;;;;;;;9.80;80.19;98312.97;7359241;19;20021;-57
2023/01/07 07:04:00;;;;;;;0.03;0.03;;;;;;;9.78;79.71;98320.03;7361742;19;20030;-57
2023/01/07 07:06:26;;;;;;;0.00;0.00;;;;;;;9.76;79.79;98335.75;7360748;19;20015;-57
2023/01/07 07:08:51;;;;;;;0.00;0.00;;;;;;;9.75;79.37;98322.84;7361919;19;20027;-57
2023/01/07 07:11:17;;;;;;;0.00;0.00;;;;;;;9.73;79.46;98322.06;7357888;19;20075;-57
2023/01/07 07:13:42;;;;;;;0.10;0.10;;;;;;;9.69;79.56;98317.97;7361838;19;20015;-55
2023/01/07 07:16:08;;;;;;;0.00;0.00;;;;;;;9.65;79.27;98314.69;7360739;19;21069;-58
2023/01/07 07:18:33;;;;;;;0.10;0.10;;;;;;;9.53;78.95;98292.78;7361923;19;20010;-57
2023/01/07 07:20:59;;;;;;;0.10;0.10;;;;;;;9.56;78.86;98315.22;7358270;19;20014;-57
2023/01/07 07:23:24;;;;;;;0.10;0.10;;;;;;;9.55;78.31;98310.94;7360091;19;20143;-56
2023/01/07 07:25:50;;;;;;;0.10;0.10;;;;;;;9.52;78.12;98318.91;7359218;19;20022;-56
2023/01/07 07:28:16;;;;;;;0.10;0.10;;;;;;;9.47;78.57;98313.13;7359187;19;20014;-58
2023/01/07 07:30:41;;;;;;;0.00;0.00;;;;;;;9.34;78.71;98295.59;7361461;19;20109;-58
2023/01/07 07:33:07;;;;;;;0.05;0.05;;;;;;;9.35;78.42;98309.44;7355970;19;20375;-56
2023/01/07 07:35:33;;;;;;;0.00;0.00;;;;;;;9.32;78.61;98314.81;7357725;19;20027;-54
2023/01/07 07:37:58;;;;;;;0.10;0.10;;;;;;;9.28;78.57;98313.34;7362741;19;20025;-57
2023/01/07 07:40:23;;;;;;;0.00;0.00;;;;;;;9.13;78.35;98298.56;7352661;19;20019;-55
2023/01/07 07:42:49;;;;;;;0.00;0.00;;;;;;;9.21;78.66;98319.78;7362403;19;20038;-56
2023/01/07 07:45:18;;;;;;;0.05;0.05;;;;;;;9.17;78.18;98311.31;7349959;19;20006;-56
2023/01/07 07:47:44;;;;;;;0.00;0.00;;;;;;;9.10;78.54;98305.59;7359888;19;20030;-57
2023/01/07 07:50:10;;;;;;;0.00;0.00;;;;;;;9.07;78.43;98305.78;7362059;19;20082;-56
2023/01/07 07:52:35;;;;;;;0.10;0.10;;;;;;;9.02;78.42;98302.59;7356339;19;20099;-57
2023/01/07 07:55:00;;;;;;;0.10;0.10;;;;;;;8.94;78.60;98289.16;7361972;19;20546;-57
2023/01/07 07:57:26;;;;;;;0.10;0.10;;;;;;;8.96;78.13;98296.88;7359676;19;20013;-56
2023/01/07 07:59:51;;;;;;;0.00;0.00;;;;;;;8.90;78.48;98298.03;7358761;19;20013;-57
2023/01/07 08:02:18;;;;;;;0.00;0.00;;;;;;;8.87;78.78;98298.22;7350436;19;20038;-52
2023/01/07 08:04:44;;;;;;;0.10;0.10;;;;;;;8.82;77.74;98295.03;7361139;19;20023;-55
2023/01/07 08:07:11;;;;;;;0.00;0.00;;;;;;;8.71;78.00;98277.38;7359100;19;20817;-56
2023/01/07 08:09:36;;;;;;;0.05;0.05;;;;;;;8.75;78.31;98304.91;7347290;19;20010;-55
2023/01/07 08:12:01;;;;;;;0.10;0.10;;;;;;;8.68;78.63;98280.16;7356550;19;20006;-56
2023/01/07 08:14:27;;;;;;;0.05;0.05;;;;;;;8.67;78.51;98275.00;7354718;19;20007;-57
2023/01/07 08:16:52;;;;;;;0.10;0.10;;;;;;;8.64;78.54;98280.41;7362146;19;20042;-56
2023/01/07 08:19:17;;;;;;;0.00;0.00;;;;;;;8.60;78.20;98273.66;7351107;19;20013;-54
2023/01/07 08:21:43;;;;;;;0.08;0.08;;;;;;;8.57;77.97;98277.28;7359847;19;20020;-57
2023/01/07 08:24:08;;;;;;;0.10;0.10;;;;;;;8.53;78.44;98279.22;7355096;19;20692;-57
2023/01/07 08:26:34;;;;;;;0.00;0.00;;;;;;;8.51;77.96;98264.59;7360343;19;20003;-57
2023/01/07 08:28:59;;;;;;;0.00;0.00;;;;;;;8.47;78.39;98263.94;7356253;19;20089;-58
2023/01/07 08:31:25;;;;;;;0.10;0.10;;;;;;;8.43;78.23;98264.19;7358159;19;20010;-57
2023/01/07 08:33:50;;;;;;;0.10;0.10;;;;;;;8.42;78.05;98255.53;7359807;19;20042;-57
2023/01/07 08:36:15;;;;;;;0.03;0.03;;;;;;;8.38;78.30;98258.38;7356070;19;20029;-57
2023/01/07 08:38:41;;;;;;;0.00;0.00;;;;;;;8.36;78.18;98255.84;7357766;19;20010;-56
2023/01/07 08:41:06;;;;;;;0.00;0.00;;;;;;;8.21;77.99;98241.88;7357668;19;20045;-56
2023/01/07 08:43:32;;;;;;;0.10;0.10;;;;;;;8.32;77.89;98262.09;7358872;19;20030;-57
2023/01/07 08:45:58;;;;;;;0.10;0.10;;;;;;;8.26;78.30;98250.28;7354658;19;20514;-56
2023/01/07 08:48:23;;;;;;;0.00;0.00;;;;;;;8.17;78.23;98235.16;7360594;19;20018;-54
2023/01/07 08:50:51;;;;;;;0.00;0.00;;;;;;;8.23;78.63;98249.59;7356203;19;20007;-57
2023/01/07 08:53:17;;;;;;;0.00;0.00;;;;;;;8.22;78.63;98247.91;7360093;19;20011;-57
2023/01/07 08:55:42;;;;;;;0.10;0.10;;;;;;;8.09;78.30;98226.91;7357814;19;20022;-54
2023/01/07 08:58:08;;;;;;;0.00;0.00;;;;;;;8.22;78.02;98247.91;7358596;19;20043;-55
2023/01/07 09:00:33;;;;;;;0.00;0.00;;;;;;;8.17;78.24;98240.34;7359046;19;20027;-57
2023/01/07 09:02:58;;;;;;;0.10;0.10;;;;;;;8.17;78.17;98244.72;7356972;19;20902;-55
2023/01/07 09:05:24;;;;;;;0.00;0.00;;;;;;;8.17;78.72;98235.16;7355071;19;20018;-57
2023/01/07 09:07:53;;;;;;;0.08;0.08;;;;;;;8.19;78.25;98232.47;7358033;19;20643;-56
2023/01/07 09:10:19;;;;;;;0.10;0.10;;;;;;;8.18;78.13;98231.63;7353685;19;20380;-56
2023/01/07 09:12:44;;;;;;;0.10;0.10;;;;;;;8.17;78.63;98229.13;7360486;19;20010;-58
2023/01/07 09:15:11;;;;;;;0.00;0.00;;;;;;;8.09;78.70;98220.88;7363089;19;20017;-56
2023/01/07 09:17:36;;;;;;;0.00;0.00;;;;;;;8.17;78.46;98223.91;7363243;19;20026;-57
2023/01/07 09:20:02;;;;;;;0.10;0.10;;;;;;;8.16;78.79;98222.22;7366611;19;20626;-57
2023/01/07 09:22:32;;;;;;;0.00;0.00;;;;;;;8.18;78.81;98230.78;7362283;19;20019;-56
2023/01/07 09:24:57;;;;;;;0.00;0.00;;;;;;;8.19;79.02;98225.50;7366812;19;20455;-55
2023/01/07 09:27:25;;;;;;;0.10;0.10;;;;;;;8.11;78.79;98214.69;7367497;19;20047;-56
2023/01/07 09:29:50;;;;;;;;;;;;;;;8.25;79.20;98219.13;7365457;19;20010;-58
2023/01/07 09:32:16;;;;;;;0.00;0.00;;;;;;;8.25;78.81;98226.94;7365868;19;20335;-57
2023/01/07 09:34:41;;;;;;;0.10;0.10;;;;;;;8.25;79.15;98226.94;7360640;19;20014;-57
2023/01/07 09:37:07;;;;;;;0.00;0.00;;;;;;;8.25;78.93;98217.38;7364604;19;20027;-56
2023/01/07 09:39:32;;;;;;;0.00;0.00;;;;;;;8.25;79.31;98206.97;7361053;19;20038;-56
2023/01/07 09:42:08;;;;;;;0.10;0.10;;;;;;;8.29;79.14;98212.84;7363996;19;20013;-57
2023/01/07 09:44:53;;;;;;;0.00;0.00;;;;;;;8.30;79.39;98204.13;7358717;19;20017;-57
2023/01/07 09:47:23;;;;;;;0.00;0.00;;;;;;;8.30;79.26;98204.97;7361099;19;20009;-58
2023/01/07 09:49:53;;;;;;;0.00;0.00;;;;;;;8.39;79.25;98198.47;7363741;19;20019;-58
2023/01/07 09:52:24;;;;;;;0.00;0.00;;;;;;;8.43;79.39;98192.19;7357657;19;20012;-57
2023/01/07 09:54:56;;;;;;;0.00;0.00;;;;;;;8.45;79.30;98182.53;7364712;19;20081;-57
2023/01/07 09:57:21;;;;;;;0.10;0.10;;;;;;;8.49;79.55;98188.41;7361795;19;20010;-58
2023/01/07 09:59:47;;;;;;;0.05;0.05;;;;;;;8.46;80.15;98167.75;7364548;19;21353;-57
2023/01/07 10:02:24;;;;;;;0.00;0.00;;;;;;;8.67;80.27;98186.56;7359865;19;20053;-58
2023/01/07 10:05:05;;;;;;;0.10;0.10;;;;;;;8.78;80.34;98173.81;7359407;19;20048;-57
2023/01/07 10:08:00;;;;;;;0.10;0.10;;;;;;;8.93;80.25;98167.75;7361070;19;20532;-57
2023/01/07 10:10:30;;;;;;;0.00;0.00;;;;;;;9.03;80.56;98174.13;7253896;19;2004292;-58
2023/01/07 10:13:16;;;;;;;0.10;0.10;;;;;;;9.17;80.52;98180.28;7356983;19;20019;-58
2023/01/07 10:15:52;;;;;;;0.00;0.00;;;;;;;9.30;80.11;98150.00;7360728;19;20027;-57
2023/01/07 10:19:03;;;;;;;0.05;0.05;;;;;;;9.46;80.66;98176.81;7359217;19;20046;-58
2023/01/07 10:21:45;;;;;;;0.10;0.10;;;;;;;9.56;80.01;98158.91;7255715;19;2004374;-56
2023/01/07 10:24:33;;;;;;;0.10;0.10;;;;;;;9.85;80.28;98172.81;7360032;19;20550;-57
2023/01/07 10:27:12;;;;;;;0.03;0.03;;;;;;;10.01;80.08;98170.94;7360657;19;20702;-57
2023/01/07 10:29:45;;;;;;;0.03;0.03;;;;;;;10.14;79.09;98174.47;7360827;19;20038;-58
2023/01/07 10:32:16;;;;;;;0.10;0.10;;;;;;;10.35;78.78;98171.50;7354590;19;20091;-58
2023/01/07 10:34:47;;;;;;;0.00;0.00;;;;;;;10.47;78.47;98157.69;7350283;19;20040;-58
2023/01/07 10:37:26;;;;;;;0.10;0.10;;;;;;;10.55;77.57;98160.66;7354102;19;20010;-58
2023/01/07 10:40:20;;;;;;;0.00;0.00;;;;;;;10.58;77.75;98163.06;7353640;19;20013;-57
2023/01/07 10:42:59;;;;;;;0.10;0.10;;;;;;;10.59;77.02;98171.72;7257051;19;2005070;-57
2023/01/07 10:45:40;;;;;;;0.10;0.10;;;;;;;10.53;76.50;98153.84;7366404;19;20033;-58
2023/01/07 10:48:24;;;;;;;0.00;0.00;;;;;;;10.54;76.25;98152.91;7361484;19;20006;-58
2023/01/07 10:51:27;;;;;;;0.10;0.10;;;;;;;10.50;76.68;98154.06;7364134;19;20510;-54
2023/01/07 10:54:19;;;;;;;0.10;0.10;;;;;;;10.42;76.90;98148.47;7254940;19;2004418;-57
2023/01/07 10:56:56;;;;;;;0.00;0.00;;;;;;;10.35;76.84;98125.41;7362488;19;20011;-57
2023/01/07 10:59:23;;;;;;;0.00;0.00;;;;;;;10.27;76.89;98124.19;7355438;19;20613;-58
2023/01/07 11:01:55;;;;;;;0.00;0.00;;;;;;;10.18;77.13;98104.69;7362984;19;20530;-55
2023/01/07 11:04:21;;;;;;;0.00;0.00;;;;;;;10.06;77.12;98108.91;7358605;19;20011;-56
2023/01/07 11:07:06;;;;;;;0.00;0.00;;;;;;;10.01;77.53;98104.94;7359290;19;20094;-57
2023/01/07 11:09:36;;;;;;;0.00;0.00;;;;;;;9.91;77.28;98088.19;7361450;19;20010;-57
2023/01/07 11:12:20;;;;;;;0.10;0.10;;;;;;;9.84;77.58;98088.56;7364724;19;20370;-57
2023/01/07 11:14:47;;;;;;;0.10;0.10;;;;;;;9.71;77.82;98086.78;7360040;19;20037;-57
2023/01/07 11:17:40;;;;;;;0.00;0.00;;;;;;;9.75;78.35;98093.50;7361865;19;20040;-57
2023/01/07 11:20:07;;;;;;;0.00;0.00;;;;;;;9.73;78.65;98090.13;7362729;19;20011;-55
2023/01/07 11:22:35;;;;;;;0.00;0.00;;;;;;;9.75;78.94;98072.66;7362352;19;20034;-56
2023/01/07 11:25:20;;;;;;;0.10;0.10;;;;;;;9.74;79.70;98055.34;7366302;19;20006;-57
2023/01/07 11:27:46;;;;;;;0.00;0.00;;;;;;;9.95;79.57;98067.03;7361959;19;20905;-57
2023/01/07 11:30:24;;;;;;;0.08;0.08;;;;;;;10.10;79.41;98055.66;7364052;19;20031;-58
2023/01/07 11:32:56;;;;;;;0.10;0.10;;;;;;;10.26;79.35;98058.16;7360080;19;20648;-58
2023/01/07 11:35:24;;;;;;;0.00;0.00;;;;;;;10.49;80.00;98059.31;7364196;19;20011;-57
2023/01/07 11:37:49;;;;;;;0.00;0.00;;;;;;;10.80;80.29;98052.09;7358339;19;20039;-57
2023/01/07 11:40:17;;;;;;;0.00;0.00;;;;;;;11.07;79.30;98065.91;7364619;19;20644;-57
2023/01/07 11:42:46;;;;;;;;;;;;;;;11.34;78.46;98059.75;7360788;19;20638;-57
2023/01/07 11:45:27;;;;;;;0.00;0.00;;;;;;;11.43;76.89;98064.34;7363369;19;19950;-57
2023/01/07 11:47:58;;;;;;;0.00;0.00;;;;;;;11.47;76.43;98058.00;7358501;19;20074;-56
2023/01/07 11:50:40;;;;;;;0.10;0.10;;;;;;;11.48;76.01;98059.66;7361274;19;20022;-57